Terminal Aerodrome Forecast
Issued by NWS

Home | Current Version | Previous Version | Graphics & Text | Print | Product List | Glossary Off
Versions: 1 2 3 4 5 6 7 8 9 10 11 12 13 14 15 16 17

000
FTUS43 KDDC 152320
TAFGCK
TAF
KGCK 152320Z 1600/1624 11004KT P6SM SCT250
     FM160700 16010KT P6SM FEW250
     FM161600 18018G26KT P6SM SKC=

USA.gov is the U.S. government's official web portal to all federal, state and local government web resources and services.